sensor_id;sensor_type;location;lat;lon;timestamp;temperature;humidity
27384;DHT22;14851;51.166;4.760;2023-05-24T00:01:02;9.90;99.90
27384;DHT22;14851;51.166;4.760;2023-05-24T00:03:28;9.80;99.90
27384;DHT22;14851;51.166;4.760;2023-05-24T00:05:55;9.80;99.90
27384;DHT22;14851;51.166;4.760;2023-05-24T00:08:21;9.80;99.90
27384;DHT22;14851;51.166;4.760;2023-05-24T00:10:49;9.80;99.90
27384;DHT22;14851;51.166;4.760;2023-05-24T00:13:17;9.70;99.90
27384;DHT22;14851;51.166;4.760;2023-05-24T00:15:51;9.70;99.90
27384;DHT22;14851;51.166;4.760;2023-05-24T00:18:20;9.60;99.90
27384;DHT22;14851;51.166;4.760;2023-05-24T00:20:48;9.50;99.90
27384;DHT22;14851;51.166;4.760;2023-05-24T00:23:14;9.50;99.90
27384;DHT22;14851;51.166;4.760;2023-05-24T00:25:40;9.50;99.90
27384;DHT22;14851;51.166;4.760;2023-05-24T00:28:06;9.40;99.90
27384;DHT22;14851;51.166;4.760;2023-05-24T00:30:31;9.40;99.90
27384;DHT22;14851;51.166;4.760;2023-05-24T00:32:57;9.40;99.90
27384;DHT22;14851;51.166;4.760;2023-05-24T00:35:23;9.40;99.90
27384;DHT22;14851;51.166;4.760;2023-05-24T00:37:49;9.30;99.90
27384;DHT22;14851;51.166;4.760;2023-05-24T00:40:15;9.30;99.90
27384;DHT22;14851;51.166;4.760;2023-05-24T00:42:41;9.30;99.90
27384;DHT22;14851;51.166;4.760;2023-05-24T00:45:07;9.30;99.90
27384;DHT22;14851;51.166;4.760;2023-05-24T00:47:34;9.20;99.90
27384;DHT22;14851;51.166;4.760;2023-05-24T00:50:01;9.20;99.90
27384;DHT22;14851;51.166;4.760;2023-05-24T00:52:30;9.20;99.90
27384;DHT22;14851;51.166;4.760;2023-05-24T00:54:56;9.10;99.90
27384;DHT22;14851;51.166;4.760;2023-05-24T00:57:22;9.10;99.90
27384;DHT22;14851;51.166;4.760;2023-05-24T00:59:50;9.10;99.90
27384;DHT22;14851;51.166;4.760;2023-05-24T01:02:19;9.00;99.90
27384;DHT22;14851;51.166;4.760;2023-05-24T01:04:45;9.00;99.90
27384;DHT22;14851;51.166;4.760;2023-05-24T01:09:54;9.00;99.90
27384;DHT22;14851;51.166;4.760;2023-05-24T01:12:35;9.00;99.90
27384;DHT22;14851;51.166;4.760;2023-05-24T01:18:15;8.90;99.90
27384;DHT22;14851;51.166;4.760;2023-05-24T01:20:42;8.80;99.90
27384;DHT22;14851;51.166;4.760;2023-05-24T01:23:27;8.80;99.90
27384;DHT22;14851;51.166;4.760;2023-05-24T01:28:32;8.80;99.90
27384;DHT22;14851;51.166;4.760;2023-05-24T01:31:00;8.80;99.90
27384;DHT22;14851;51.166;4.760;2023-05-24T01:33:27;8.70;99.90
27384;DHT22;14851;51.166;4.760;2023-05-24T01:35:55;8.70;99.90
27384;DHT22;14851;51.166;4.760;2023-05-24T01:38:21;8.70;99.90
27384;DHT22;14851;51.166;4.760;2023-05-24T01:40:58;8.60;99.90
27384;DHT22;14851;51.166;4.760;2023-05-24T01:43:32;8.60;99.90
27384;DHT22;14851;51.166;4.760;2023-05-24T01:51:36;8.50;99.90
27384;DHT22;14851;51.166;4.760;2023-05-24T01:54:03;8.40;99.90
27384;DHT22;14851;51.166;4.760;2023-05-24T01:56:33;8.40;99.90
27384;DHT22;14851;51.166;4.760;2023-05-24T01:59:01;8.40;99.90
27384;DHT22;14851;51.166;4.760;2023-05-24T02:01:31;8.40;99.90
27384;DHT22;14851;51.166;4.760;2023-05-24T02:03:58;8.30;99.90
27384;DHT22;14851;51.166;4.760;2023-05-24T02:06:27;8.20;99.90
27384;DHT22;14851;51.166;4.760;2023-05-24T02:08:52;8.20;99.90
27384;DHT22;14851;51.166;4.760;2023-05-24T02:11:21;8.20;99.90
27384;DHT22;14851;51.166;4.760;2023-05-24T02:13:47;8.20;99.90
27384;DHT22;14851;51.166;4.760;2023-05-24T02:16:13;8.10;99.90
27384;DHT22;14851;51.166;4.760;2023-05-24T02:18:40;8.10;99.90
27384;DHT22;14851;51.166;4.760;2023-05-24T02:21:12;8.00;99.90
27384;DHT22;14851;51.166;4.760;2023-05-24T02:23:38;8.00;99.90
27384;DHT22;14851;51.166;4.760;2023-05-24T02:26:04;7.90;99.90
27384;DHT22;14851;51.166;4.760;2023-05-24T02:28:30;8.00;99.90
27384;DHT22;14851;51.166;4.760;2023-05-24T02:30:57;7.90;99.90
27384;DHT22;14851;51.166;4.760;2023-05-24T02:33:25;7.90;99.90
27384;DHT22;14851;51.166;4.760;2023-05-24T02:35:51;7.80;99.90
27384;DHT22;14851;51.166;4.760;2023-05-24T02:38:17;7.80;99.90
27384;DHT22;14851;51.166;4.760;2023-05-24T02:40:43;7.70;99.90
27384;DHT22;14851;51.166;4.760;2023-05-24T02:43:09;7.70;99.90
27384;DHT22;14851;51.166;4.760;2023-05-24T02:45:35;7.70;99.90
27384;DHT22;14851;51.166;4.760;2023-05-24T02:48:02;7.80;99.90
27384;DHT22;14851;51.166;4.760;2023-05-24T02:50:30;7.70;99.90
27384;DHT22;14851;51.166;4.760;2023-05-24T02:52:58;7.60;99.90
27384;DHT22;14851;51.166;4.760;2023-05-24T02:55:24;7.60;99.90
27384;DHT22;14851;51.166;4.760;2023-05-24T02:57:51;7.60;99.90
27384;DHT22;14851;51.166;4.760;2023-05-24T03:00:19;7.50;99.90
27384;DHT22;14851;51.166;4.760;2023-05-24T03:02:47;7.50;99.90
27384;DHT22;14851;51.166;4.760;2023-05-24T03:05:15;7.50;99.90
27384;DHT22;14851;51.166;4.760;2023-05-24T03:07:41;7.50;99.90
27384;DHT22;14851;51.166;4.760;2023-05-24T03:10:08;7.50;99.90
27384;DHT22;14851;51.166;4.760;2023-05-24T03:12:34;7.40;99.90
27384;DHT22;14851;51.166;4.760;2023-05-24T03:14:59;7.40;99.90
27384;DHT22;14851;51.166;4.760;2023-05-24T03:17:26;7.40;99.90
27384;DHT22;14851;51.166;4.760;2023-05-24T03:19:51;7.40;99.90
27384;DHT22;14851;51.166;4.760;2023-05-24T03:22:18;7.30;99.90
27384;DHT22;14851;51.166;4.760;2023-05-24T03:24:47;7.30;99.90
27384;DHT22;14851;51.166;4.760;2023-05-24T03:27:13;7.30;99.90
27384;DHT22;14851;51.166;4.760;2023-05-24T03:29:40;7.30;99.90
27384;DHT22;14851;51.166;4.760;2023-05-24T03:32:08;7.30;99.90
27384;DHT22;14851;51.166;4.760;2023-05-24T03:34:34;7.20;99.90
27384;DHT22;14851;51.166;4.760;2023-05-24T03:37:06;7.10;99.90
27384;DHT22;14851;51.166;4.760;2023-05-24T03:39:33;7.10;99.90
27384;DHT22;14851;51.166;4.760;2023-05-24T03:42:13;7.10;99.90
27384;DHT22;14851;51.166;4.760;2023-05-24T03:44:41;7.20;99.90
27384;DHT22;14851;51.166;4.760;2023-05-24T03:47:08;7.10;99.90
27384;DHT22;14851;51.166;4.760;2023-05-24T03:49:35;7.10;99.90
27384;DHT22;14851;51.166;4.760;2023-05-24T03:52:01;7.10;99.90
27384;DHT22;14851;51.166;4.760;2023-05-24T03:54:27;7.10;99.90
27384;DHT22;14851;51.166;4.760;2023-05-24T03:56:56;7.00;99.90
27384;DHT22;14851;51.166;4.760;2023-05-24T03:59:23;7.00;99.90
27384;DHT22;14851;51.166;4.760;2023-05-24T04:01:48;7.00;99.90
27384;DHT22;14851;51.166;4.760;2023-05-24T04:04:14;7.00;99.90
27384;DHT22;14851;51.166;4.760;2023-05-24T04:06:40;7.00;99.90
27384;DHT22;14851;51.166;4.760;2023-05-24T04:09:06;7.00;99.90
27384;DHT22;14851;51.166;4.760;2023-05-24T04:11:33;7.00;99.90
27384;DHT22;14851;51.166;4.760;2023-05-24T04:13:59;6.90;99.90
27384;DHT22;14851;51.166;4.760;2023-05-24T04:16:25;6.90;99.90
27384;DHT22;14851;51.166;4.760;2023-05-24T04:18:55;6.90;99.90
27384;DHT22;14851;51.166;4.760;2023-05-24T04:21:21;6.90;99.90
27384;DHT22;14851;51.166;4.760;2023-05-24T04:23:47;6.90;99.90
27384;DHT22;14851;51.166;4.760;2023-05-24T04:26:14;7.00;99.90
27384;DHT22;14851;51.166;4.760;2023-05-24T04:28:43;7.00;99.90
27384;DHT22;14851;51.166;4.760;2023-05-24T04:31:10;7.00;99.90
27384;DHT22;14851;51.166;4.760;2023-05-24T04:33:36;7.00;99.90
27384;DHT22;14851;51.166;4.760;2023-05-24T04:36:04;7.00;99.90
27384;DHT22;14851;51.166;4.760;2023-05-24T04:38:31;7.00;99.90
27384;DHT22;14851;51.166;4.760;2023-05-24T04:40:59;7.00;99.90
27384;DHT22;14851;51.166;4.760;2023-05-24T04:43:27;7.10;99.90
27384;DHT22;14851;51.166;4.760;2023-05-24T04:45:54;7.10;99.90
27384;DHT22;14851;51.166;4.760;2023-05-24T04:48:20;7.10;99.90
27384;DHT22;14851;51.166;4.760;2023-05-24T04:50:56;7.10;99.90
27384;DHT22;14851;51.166;4.760;2023-05-24T04:53:23;7.10;99.90
27384;DHT22;14851;51.166;4.760;2023-05-24T04:55:49;7.10;99.90
27384;DHT22;14851;51.166;4.760;2023-05-24T04:58:15;7.10;99.90
27384;DHT22;14851;51.166;4.760;2023-05-24T05:00:42;7.10;99.90
27384;DHT22;14851;51.166;4.760;2023-05-24T05:03:09;7.10;99.90
27384;DHT22;14851;51.166;4.760;2023-05-24T05:05:38;7.20;99.90
27384;DHT22;14851;51.166;4.760;2023-05-24T05:08:08;7.20;99.90
27384;DHT22;14851;51.166;4.760;2023-05-24T05:10:36;7.20;99.90
27384;DHT22;14851;51.166;4.760;2023-05-24T05:13:02;7.30;99.90
27384;DHT22;14851;51.166;4.760;2023-05-24T05:15:31;7.30;99.90
27384;DHT22;14851;51.166;4.760;2023-05-24T05:17:57;7.40;99.90
27384;DHT22;14851;51.166;4.760;2023-05-24T05:20:23;7.40;99.90
27384;DHT22;14851;51.166;4.760;2023-05-24T05:22:51;7.50;99.90
27384;DHT22;14851;51.166;4.760;2023-05-24T05:25:16;7.60;99.90
27384;DHT22;14851;51.166;4.760;2023-05-24T05:27:44;7.60;99.90
27384;DHT22;14851;51.166;4.760;2023-05-24T05:30:12;7.60;99.90
27384;DHT22;14851;51.166;4.760;2023-05-24T05:32:39;7.70;99.90
27384;DHT22;14851;51.166;4.760;2023-05-24T05:35:05;7.70;99.90
27384;DHT22;14851;51.166;4.760;2023-05-24T05:37:31;7.80;99.90
27384;DHT22;14851;51.166;4.760;2023-05-24T05:39:57;7.80;99.90
27384;DHT22;14851;51.166;4.760;2023-05-24T05:42:27;7.90;99.90
27384;DHT22;14851;51.166;4.760;2023-05-24T05:44:53;7.90;99.90
27384;DHT22;14851;51.166;4.760;2023-05-24T05:47:22;8.00;99.90
27384;DHT22;14851;51.166;4.760;2023-05-24T05:49:51;8.00;99.90
27384;DHT22;14851;51.166;4.760;2023-05-24T05:52:17;8.00;99.90
27384;DHT22;14851;51.166;4.760;2023-05-24T05:54:43;8.00;99.90
27384;DHT22;14851;51.166;4.760;2023-05-24T05:57:08;8.10;99.90
27384;DHT22;14851;51.166;4.760;2023-05-24T05:59:36;8.20;99.90
27384;DHT22;14851;51.166;4.760;2023-05-24T06:02:05;8.20;99.90
27384;DHT22;14851;51.166;4.760;2023-05-24T06:04:31;8.30;99.90
27384;DHT22;14851;51.166;4.760;2023-05-24T06:06:57;8.40;99.90
27384;DHT22;14851;51.166;4.760;2023-05-24T06:09:25;8.40;99.90
27384;DHT22;14851;51.166;4.760;2023-05-24T06:11:53;8.50;99.90
27384;DHT22;14851;51.166;4.760;2023-05-24T06:14:21;8.60;99.90
27384;DHT22;14851;51.166;4.760;2023-05-24T06:16:50;8.60;99.90
27384;DHT22;14851;51.166;4.760;2023-05-24T06:19:17;8.70;99.90
27384;DHT22;14851;51.166;4.760;2023-05-24T06:21:43;8.80;99.90
27384;DHT22;14851;51.166;4.760;2023-05-24T06:24:16;8.80;99.90
27384;DHT22;14851;51.166;4.760;2023-05-24T06:26:47;8.90;99.90
27384;DHT22;14851;51.166;4.760;2023-05-24T06:29:13;8.90;99.90
27384;DHT22;14851;51.166;4.760;2023-05-24T06:31:39;9.00;99.90
27384;DHT22;14851;51.166;4.760;2023-05-24T06:34:05;9.10;99.90
27384;DHT22;14851;51.166;4.760;2023-05-24T06:36:31;9.20;99.90
27384;DHT22;14851;51.166;4.760;2023-05-24T06:39:11;9.30;99.90
27384;DHT22;14851;51.166;4.760;2023-05-24T06:41:47;9.40;99.90
27384;DHT22;14851;51.166;4.760;2023-05-24T06:44:22;9.40;99.90
27384;DHT22;14851;51.166;4.760;2023-05-24T06:46:54;9.50;99.90
27384;DHT22;14851;51.166;4.760;2023-05-24T06:49:20;9.50;99.90
27384;DHT22;14851;51.166;4.760;2023-05-24T06:51:46;9.60;99.90
27384;DHT22;14851;51.166;4.760;2023-05-24T06:54:12;9.70;99.90
27384;DHT22;14851;51.166;4.760;2023-05-24T06:56:38;9.80;99.90
27384;DHT22;14851;51.166;4.760;2023-05-24T06:59:05;9.90;99.90
27384;DHT22;14851;51.166;4.760;2023-05-24T07:01:35;9.90;99.90
27384;DHT22;14851;51.166;4.760;2023-05-24T07:04:05;10.10;99.90
27384;DHT22;14851;51.166;4.760;2023-05-24T07:06:31;10.20;99.90
27384;DHT22;14851;51.166;4.760;2023-05-24T07:09:00;10.20;99.90
27384;DHT22;14851;51.166;4.760;2023-05-24T07:11:30;10.20;99.90
27384;DHT22;14851;51.166;4.760;2023-05-24T07:13:59;10.30;99.90
27384;DHT22;14851;51.166;4.760;2023-05-24T07:16:25;10.40;99.90
27384;DHT22;14851;51.166;4.760;2023-05-24T07:18:51;10.50;99.90
27384;DHT22;14851;51.166;4.760;2023-05-24T07:21:18;10.50;99.90
27384;DHT22;14851;51.166;4.760;2023-05-24T07:23:44;10.60;99.90
27384;DHT22;14851;51.166;4.760;2023-05-24T07:26:10;10.60;99.90
27384;DHT22;14851;51.166;4.760;2023-05-24T07:28:38;10.70;99.90
27384;DHT22;14851;51.166;4.760;2023-05-24T07:31:09;10.80;99.90
27384;DHT22;14851;51.166;4.760;2023-05-24T07:33:38;10.80;99.90
27384;DHT22;14851;51.166;4.760;2023-05-24T07:36:05;10.90;99.90
27384;DHT22;14851;51.166;4.760;2023-05-24T07:38:36;11.00;99.90
27384;DHT22;14851;51.166;4.760;2023-05-24T07:41:03;11.00;99.90
27384;DHT22;14851;51.166;4.760;2023-05-24T07:43:32;11.20;99.90
27384;DHT22;14851;51.166;4.760;2023-05-24T07:45:58;11.20;99.90
27384;DHT22;14851;51.166;4.760;2023-05-24T07:48:24;11.30;99.90
27384;DHT22;14851;51.166;4.760;2023-05-24T07:50:51;11.30;99.90
27384;DHT22;14851;51.166;4.760;2023-05-24T07:53:17;11.30;99.90
27384;DHT22;14851;51.166;4.760;2023-05-24T07:55:44;11.30;99.90
27384;DHT22;14851;51.166;4.760;2023-05-24T07:58:12;11.30;99.90
27384;DHT22;14851;51.166;4.760;2023-05-24T08:00:40;11.40;99.90
27384;DHT22;14851;51.166;4.760;2023-05-24T08:03:06;11.40;99.90
27384;DHT22;14851;51.166;4.760;2023-05-24T08:05:32;11.50;99.90
27384;DHT22;14851;51.166;4.760;2023-05-24T08:07:58;11.60;99.90
27384;DHT22;14851;51.166;4.760;2023-05-24T08:10:24;11.60;99.90
27384;DHT22;14851;51.166;4.760;2023-05-24T08:12:50;11.80;99.90
27384;DHT22;14851;51.166;4.760;2023-05-24T08:15:19;11.80;99.90
27384;DHT22;14851;51.166;4.760;2023-05-24T08:17:45;11.80;99.90
27384;DHT22;14851;51.166;4.760;2023-05-24T08:20:11;11.80;99.90
27384;DHT22;14851;51.166;4.760;2023-05-24T08:22:41;11.90;99.90
27384;DHT22;14851;51.166;4.760;2023-05-24T08:25:08;12.00;99.90
27384;DHT22;14851;51.166;4.760;2023-05-24T08:27:34;12.00;99.90
27384;DHT22;14851;51.166;4.760;2023-05-24T08:30:06;12.10;99.90
27384;DHT22;14851;51.166;4.760;2023-05-24T08:32:35;12.20;99.90
27384;DHT22;14851;51.166;4.760;2023-05-24T08:35:01;12.30;99.90
27384;DHT22;14851;51.166;4.760;2023-05-24T08:37:27;12.30;99.90
27384;DHT22;14851;51.166;4.760;2023-05-24T08:39:56;12.40;99.90
27384;DHT22;14851;51.166;4.760;2023-05-24T08:42:23;12.40;99.90
27384;DHT22;14851;51.166;4.760;2023-05-24T08:45:17;12.50;99.90
27384;DHT22;14851;51.166;4.760;2023-05-24T08:47:46;12.70;99.90
27384;DHT22;14851;51.166;4.760;2023-05-24T08:50:14;12.80;99.90
27384;DHT22;14851;51.166;4.760;2023-05-24T08:52:41;12.90;99.90
27384;DHT22;14851;51.166;4.760;2023-05-24T08:55:07;12.90;99.90
27384;DHT22;14851;51.166;4.760;2023-05-24T08:57:35;13.00;99.90
27384;DHT22;14851;51.166;4.760;2023-05-24T09:00:09;13.10;99.90
27384;DHT22;14851;51.166;4.760;2023-05-24T09:02:41;13.20;99.90
27384;DHT22;14851;51.166;4.760;2023-05-24T09:05:11;13.20;99.90
27384;DHT22;14851;51.166;4.760;2023-05-24T09:07:37;13.20;99.90
27384;DHT22;14851;51.166;4.760;2023-05-24T09:10:06;13.20;99.90
27384;DHT22;14851;51.166;4.760;2023-05-24T09:12:33;13.30;99.90
27384;DHT22;14851;51.166;4.760;2023-05-24T09:15:01;13.30;99.90
27384;DHT22;14851;51.166;4.760;2023-05-24T09:17:30;13.40;99.90
27384;DHT22;14851;51.166;4.760;2023-05-24T09:19:57;13.50;99.90
27384;DHT22;14851;51.166;4.760;2023-05-24T09:22:27;13.50;99.90
27384;DHT22;14851;51.166;4.760;2023-05-24T09:25:02;13.60;99.90
27384;DHT22;14851;51.166;4.760;2023-05-24T09:27:31;13.70;99.90
27384;DHT22;14851;51.166;4.760;2023-05-24T09:29:57;13.70;99.90
27384;DHT22;14851;51.166;4.760;2023-05-24T09:32:29;13.80;99.90
27384;DHT22;14851;51.166;4.760;2023-05-24T09:34:57;13.90;99.90
27384;DHT22;14851;51.166;4.760;2023-05-24T09:37:26;14.00;99.90
27384;DHT22;14851;51.166;4.760;2023-05-24T09:39:55;14.00;99.90
27384;DHT22;14851;51.166;4.760;2023-05-24T09:42:24;14.10;99.90
27384;DHT22;14851;51.166;4.760;2023-05-24T09:44:58;14.20;99.90
27384;DHT22;14851;51.166;4.760;2023-05-24T09:47:33;14.30;99.90
27384;DHT22;14851;51.166;4.760;2023-05-24T09:50:04;14.30;99.90
27384;DHT22;14851;51.166;4.760;2023-05-24T09:52:35;14.40;99.90
27384;DHT22;14851;51.166;4.760;2023-05-24T09:55:16;14.40;99.90
27384;DHT22;14851;51.166;4.760;2023-05-24T09:57:44;14.50;99.90
27384;DHT22;14851;51.166;4.760;2023-05-24T10:00:11;14.60;99.90
27384;DHT22;14851;51.166;4.760;2023-05-24T10:02:44;14.60;99.90
27384;DHT22;14851;51.166;4.760;2023-05-24T10:05:12;14.70;99.90
27384;DHT22;14851;51.166;4.760;2023-05-24T10:07:42;14.70;99.90
27384;DHT22;14851;51.166;4.760;2023-05-24T10:10:10;14.80;99.90
27384;DHT22;14851;51.166;4.760;2023-05-24T10:12:36;14.80;99.90
27384;DHT22;14851;51.166;4.760;2023-05-24T10:15:10;14.80;99.90
27384;DHT22;14851;51.166;4.760;2023-05-24T10:17:36;14.90;99.90
27384;DHT22;14851;51.166;4.760;2023-05-24T10:20:08;14.90;99.90
27384;DHT22;14851;51.166;4.760;2023-05-24T10:22:41;15.00;99.90
27384;DHT22;14851;51.166;4.760;2023-05-24T10:25:11;15.00;99.90
27384;DHT22;14851;51.166;4.760;2023-05-24T10:27:41;15.10;99.90
27384;DHT22;14851;51.166;4.760;2023-05-24T10:32:58;15.20;99.90
27384;DHT22;14851;51.166;4.760;2023-05-24T10:35:26;15.30;99.90
27384;DHT22;14851;51.166;4.760;2023-05-24T10:37:54;15.30;99.90
27384;DHT22;14851;51.166;4.760;2023-05-24T10:40:22;15.40;99.90
27384;DHT22;14851;51.166;4.760;2023-05-24T10:42:51;15.50;99.90
27384;DHT22;14851;51.166;4.760;2023-05-24T10:45:31;15.50;99.90
27384;DHT22;14851;51.166;4.760;2023-05-24T10:48:46;15.60;99.90
27384;DHT22;14851;51.166;4.760;2023-05-24T10:50:48;15.60;99.90
27384;DHT22;14851;51.166;4.760;2023-05-24T10:53:20;15.60;99.90
27384;DHT22;14851;51.166;4.760;2023-05-24T10:55:57;15.60;99.90
27384;DHT22;14851;51.166;4.760;2023-05-24T11:01:25;15.70;99.90
27384;DHT22;14851;51.166;4.760;2023-05-24T11:03:52;15.70;99.90
27384;DHT22;14851;51.166;4.760;2023-05-24T11:06:17;15.70;99.90
27384;DHT22;14851;51.166;4.760;2023-05-24T11:08:47;15.70;99.90
27384;DHT22;14851;51.166;4.760;2023-05-24T11:11:13;15.80;99.90
27384;DHT22;14851;51.166;4.760;2023-05-24T11:13:47;15.80;99.90
27384;DHT22;14851;51.166;4.760;2023-05-24T11:16:35;15.90;99.90
27384;DHT22;14851;51.166;4.760;2023-05-24T11:19:13;16.00;99.90
27384;DHT22;14851;51.166;4.760;2023-05-24T11:21:40;16.10;99.90
27384;DHT22;14851;51.166;4.760;2023-05-24T11:24:12;16.20;99.90
27384;DHT22;14851;51.166;4.760;2023-05-24T11:26:39;16.20;99.90
27384;DHT22;14851;51.166;4.760;2023-05-24T11:29:06;16.20;99.90
27384;DHT22;14851;51.166;4.760;2023-05-24T11:31:34;16.30;99.90
27384;DHT22;14851;51.166;4.760;2023-05-24T11:34:09;16.40;99.90
27384;DHT22;14851;51.166;4.760;2023-05-24T11:36:36;16.40;99.90
27384;DHT22;14851;51.166;4.760;2023-05-24T11:39:06;16.50;99.90
27384;DHT22;14851;51.166;4.760;2023-05-24T11:41:39;16.50;99.90
27384;DHT22;14851;51.166;4.760;2023-05-24T11:44:10;16.50;99.90
27384;DHT22;14851;51.166;4.760;2023-05-24T11:46:42;16.50;99.90
27384;DHT22;14851;51.166;4.760;2023-05-24T11:49:16;16.50;99.90
27384;DHT22;14851;51.166;4.760;2023-05-24T11:51:42;16.60;99.90
27384;DHT22;14851;51.166;4.760;2023-05-24T11:54:10;16.70;99.90
27384;DHT22;14851;51.166;4.760;2023-05-24T11:56:36;16.80;99.90
27384;DHT22;14851;51.166;4.760;2023-05-24T11:59:10;16.80;99.90
27384;DHT22;14851;51.166;4.760;2023-05-24T12:01:39;16.80;99.90
27384;DHT22;14851;51.166;4.760;2023-05-24T12:04:07;16.90;99.90
27384;DHT22;14851;51.166;4.760;2023-05-24T12:06:42;16.90;99.90
27384;DHT22;14851;51.166;4.760;2023-05-24T12:09:10;17.00;99.90
27384;DHT22;14851;51.166;4.760;2023-05-24T12:11:42;17.00;99.90
27384;DHT22;14851;51.166;4.760;2023-05-24T12:14:21;17.10;99.90
27384;DHT22;14851;51.166;4.760;2023-05-24T12:16:48;17.10;99.90
27384;DHT22;14851;51.166;4.760;2023-05-24T12:19:18;17.10;99.90
27384;DHT22;14851;51.166;4.760;2023-05-24T12:21:45;17.00;99.90
27384;DHT22;14851;51.166;4.760;2023-05-24T12:24:14;17.00;99.90
27384;DHT22;14851;51.166;4.760;2023-05-24T12:26:42;16.90;99.90
27384;DHT22;14851;51.166;4.760;2023-05-24T12:29:11;16.80;99.90
27384;DHT22;14851;51.166;4.760;2023-05-24T12:31:41;16.80;99.90
27384;DHT22;14851;51.166;4.760;2023-05-24T12:34:14;16.80;99.90
27384;DHT22;14851;51.166;4.760;2023-05-24T12:36:42;16.70;99.90
27384;DHT22;14851;51.166;4.760;2023-05-24T12:41:53;16.70;99.90
27384;DHT22;14851;51.166;4.760;2023-05-24T12:44:23;16.70;99.90
27384;DHT22;14851;51.166;4.760;2023-05-24T12:46:55;16.70;99.90
27384;DHT22;14851;51.166;4.760;2023-05-24T12:49:27;16.80;99.90
27384;DHT22;14851;51.166;4.760;2023-05-24T12:51:55;16.80;99.90
27384;DHT22;14851;51.166;4.760;2023-05-24T12:54:24;16.80;99.90
27384;DHT22;14851;51.166;4.760;2023-05-24T12:56:53;16.90;99.90
27384;DHT22;14851;51.166;4.760;2023-05-24T12:59:19;17.00;99.90
27384;DHT22;14851;51.166;4.760;2023-05-24T13:01:45;17.10;99.90
27384;DHT22;14851;51.166;4.760;2023-05-24T13:04:17;17.10;99.90
27384;DHT22;14851;51.166;4.760;2023-05-24T13:06:48;17.10;99.90
27384;DHT22;14851;51.166;4.760;2023-05-24T13:09:16;17.20;99.90
27384;DHT22;14851;51.166;4.760;2023-05-24T13:11:46;17.20;99.90
27384;DHT22;14851;51.166;4.760;2023-05-24T13:14:16;17.20;99.90
27384;DHT22;14851;51.166;4.760;2023-05-24T13:16:46;17.20;99.90
27384;DHT22;14851;51.166;4.760;2023-05-24T13:19:13;17.20;99.90
27384;DHT22;14851;51.166;4.760;2023-05-24T13:21:42;17.20;99.90
27384;DHT22;14851;51.166;4.760;2023-05-24T13:24:14;17.20;99.90
27384;DHT22;14851;51.166;4.760;2023-05-24T13:26:41;17.30;99.90
27384;DHT22;14851;51.166;4.760;2023-05-24T13:29:06;17.30;99.90
27384;DHT22;14851;51.166;4.760;2023-05-24T13:31:32;17.30;99.90
27384;DHT22;14851;51.166;4.760;2023-05-24T13:33:58;17.30;99.90
27384;DHT22;14851;51.166;4.760;2023-05-24T13:36:24;17.30;99.90
27384;DHT22;14851;51.166;4.760;2023-05-24T13:38:51;17.40;99.90
27384;DHT22;14851;51.166;4.760;2023-05-24T13:41:16;17.50;99.90
27384;DHT22;14851;51.166;4.760;2023-05-24T13:43:42;17.50;99.90
27384;DHT22;14851;51.166;4.760;2023-05-24T13:46:11;17.60;99.90
27384;DHT22;14851;51.166;4.760;2023-05-24T13:48:38;17.70;99.90
27384;DHT22;14851;51.166;4.760;2023-05-24T13:51:05;17.70;99.90
27384;DHT22;14851;51.166;4.760;2023-05-24T13:53:32;17.80;99.90
27384;DHT22;14851;51.166;4.760;2023-05-24T13:56:00;17.80;99.90
27384;DHT22;14851;51.166;4.760;2023-05-24T13:58:29;17.90;99.90
27384;DHT22;14851;51.166;4.760;2023-05-24T14:00:56;18.00;99.90
27384;DHT22;14851;51.166;4.760;2023-05-24T14:03:22;18.00;99.90
27384;DHT22;14851;51.166;4.760;2023-05-24T14:05:51;18.00;99.90
27384;DHT22;14851;51.166;4.760;2023-05-24T14:08:17;18.10;99.90
27384;DHT22;14851;51.166;4.760;2023-05-24T14:10:42;18.10;99.90
27384;DHT22;14851;51.166;4.760;2023-05-24T14:13:09;18.10;99.90
27384;DHT22;14851;51.166;4.760;2023-05-24T14:15:35;18.10;99.90
27384;DHT22;14851;51.166;4.760;2023-05-24T14:18:01;18.10;99.90
27384;DHT22;14851;51.166;4.760;2023-05-24T14:20:52;18.20;99.90
27384;DHT22;14851;51.166;4.760;2023-05-24T14:23:19;18.20;99.90
27384;DHT22;14851;51.166;4.760;2023-05-24T14:25:44;18.20;99.90
27384;DHT22;14851;51.166;4.760;2023-05-24T14:28:14;18.20;99.90
27384;DHT22;14851;51.166;4.760;2023-05-24T14:30:40;18.20;99.90
27384;DHT22;14851;51.166;4.760;2023-05-24T14:33:06;18.10;99.90
27384;DHT22;14851;51.166;4.760;2023-05-24T14:35:32;18.00;99.90
27384;DHT22;14851;51.166;4.760;2023-05-24T14:38:05;18.00;99.90
27384;DHT22;14851;51.166;4.760;2023-05-24T14:40:33;17.90;99.90
27384;DHT22;14851;51.166;4.760;2023-05-24T14:43:06;17.90;99.90
27384;DHT22;14851;51.166;4.760;2023-05-24T14:45:34;17.90;99.90
27384;DHT22;14851;51.166;4.760;2023-05-24T14:48:04;17.90;99.90
27384;DHT22;14851;51.166;4.760;2023-05-24T14:50:30;18.00;99.90
27384;DHT22;14851;51.166;4.760;2023-05-24T14:52:56;18.00;99.90
27384;DHT22;14851;51.166;4.760;2023-05-24T14:55:21;18.00;99.90
27384;DHT22;14851;51.166;4.760;2023-05-24T14:57:47;18.00;99.90
27384;DHT22;14851;51.166;4.760;2023-05-24T15:00:14;17.90;99.90
27384;DHT22;14851;51.166;4.760;2023-05-24T15:02:40;18.00;99.90
27384;DHT22;14851;51.166;4.760;2023-05-24T15:05:06;18.00;99.90
27384;DHT22;14851;51.166;4.760;2023-05-24T15:07:35;18.00;99.90
27384;DHT22;14851;51.166;4.760;2023-05-24T15:10:03;18.00;99.90
27384;DHT22;14851;51.166;4.760;2023-05-24T15:12:29;18.00;99.90
27384;DHT22;14851;51.166;4.760;2023-05-24T15:14:55;18.00;99.90
27384;DHT22;14851;51.166;4.760;2023-05-24T15:17:21;18.00;99.90
27384;DHT22;14851;51.166;4.760;2023-05-24T15:19:48;18.00;99.90
27384;DHT22;14851;51.166;4.760;2023-05-24T15:22:14;17.90;99.90
27384;DHT22;14851;51.166;4.760;2023-05-24T15:24:42;17.90;99.90
27384;DHT22;14851;51.166;4.760;2023-05-24T15:27:08;17.90;99.90
27384;DHT22;14851;51.166;4.760;2023-05-24T15:29:36;17.90;99.90
27384;DHT22;14851;51.166;4.760;2023-05-24T15:32:02;17.90;99.90
27384;DHT22;14851;51.166;4.760;2023-05-24T15:34:31;17.90;99.90
27384;DHT22;14851;51.166;4.760;2023-05-24T15:36:57;17.90;99.90
27384;DHT22;14851;51.166;4.760;2023-05-24T15:39:23;18.00;99.90
27384;DHT22;14851;51.166;4.760;2023-05-24T15:41:49;18.00;99.90
27384;DHT22;14851;51.166;4.760;2023-05-24T15:44:17;18.10;99.90
27384;DHT22;14851;51.166;4.760;2023-05-24T15:46:42;18.10;99.90
27384;DHT22;14851;51.166;4.760;2023-05-24T15:49:08;18.10;99.90
27384;DHT22;14851;51.166;4.760;2023-05-24T15:51:34;18.20;99.90
27384;DHT22;14851;51.166;4.760;2023-05-24T15:54:02;18.20;99.90
27384;DHT22;14851;51.166;4.760;2023-05-24T15:56:28;18.30;99.90
27384;DHT22;14851;51.166;4.760;2023-05-24T15:58:55;18.30;99.90
27384;DHT22;14851;51.166;4.760;2023-05-24T16:01:22;18.30;99.90
27384;DHT22;14851;51.166;4.760;2023-05-24T16:03:48;18.30;99.90
27384;DHT22;14851;51.166;4.760;2023-05-24T16:06:14;18.30;99.90